Impacts METAR Board INFO
IDs:

KIAD - Washington/Dulles In, VA, US

Updated at: 1521 UTC 16 Jan 2018
Potential Impact None Slight Moderate High
Time16/03Z 16/04Z 16/05Z 16/06Z 16/07Z 16/08Z 16/09Z 16/10Z 16/11Z 16/12Z 16/13Z 16/14Z 16/15Z
VIS10 10 10 8 8 10 10 10 10 10 7 7 10
CIG250 12 9 7 8 8 8 9 9 8 7 8 9
CoverBKNOVCOVCOVCOVCBKNOVCOVCOVCOVCBKNBKNBKN
FltCatVFRMVFRIFRIFRIFRIFRIFRIFRIFRIFRIFRIFRIFR
WX--------------------------
WDir11000170190000017001700
WSpd3 0 0 3 4 0 0 0 0 3 0 3 3
WGst-- -- -- -- -- -- -- -- -- -- -- -- --
Raw hourly METARs
KIAD 160252Z 11003KT 10SM SCT029 SCT110 BKN250 M06/M07 A3046 RMK AO2 SLP320 T10561072 58003
KIAD 160352Z 00000KT 10SM BKN012 BKN030 OVC100 M04/M05 A3048 RMK AO2 SLP327 T10391050
KIAD 160452Z 00000KT 10SM OVC009 M03/M05 A3047 RMK AO2 SLP321 T10331050 410061117
KIAD 160552Z 17003KT 8SM OVC007 M03/M04 A3045 RMK AO2 SNB30E39 SLP314 VCSH P0000 60000 T10331044 11033 21072 58006
KIAD 160652Z 19004KT 8SM OVC008 M03/M03 A3045 RMK AO2 SLP315 T10281033
KIAD 160752Z 00000KT 10SM BKN008 M03/M03 A3044 RMK AO2 SLP312 T10281033
KIAD 160852Z 00000KT 10SM OVC008 M03/M04 A3044 RMK AO2 SLP312 T10281039 58001
KIAD 160952Z 00000KT 10SM OVC009 M03/M04 A3044 RMK AO2 SLP310 T10331044
KIAD 161052Z 00000KT 10SM OVC009 M03/M04 A3045 RMK AO2 SLP316 T10331044
KIAD 161152Z 17003KT 10SM OVC008 M03/M04 A3046 RMK AO2 SLP319 T10331044 11022 21039 53006
KIAD 161252Z 00000KT 7SM BKN007 BKN018 BKN200 M03/M04 A3047 RMK AO2 SLP322 T10331039
KIAD 161352Z 17003KT 7SM BKN008 BKN090 M03/M03 A3047 RMK AO2 SLP323 T10281033
KIAD 161452Z VRB03KT 10SM BKN009 BKN100 M01/M03 A3048 RMK AO2 SLP324 T10111033 51005